createdAt,value
2022-08-19T00:00:49.716Z,22.90
2022-08-19T00:02:22.499Z,22.90
2022-08-19T00:03:55.279Z,22.80
2022-08-19T00:05:28.115Z,22.70
2022-08-19T00:07:01.636Z,22.80
2022-08-19T00:08:34.854Z,22.80
2022-08-19T00:10:09.878Z,22.80
2022-08-19T00:11:43.532Z,22.80
2022-08-19T00:13:16.552Z,22.70
2022-08-19T00:14:50.704Z,22.80
2022-08-19T00:16:26.417Z,22.70
2022-08-19T00:17:59.791Z,22.80
2022-08-19T00:19:33.027Z,22.80
2022-08-19T00:21:09.637Z,22.80
2022-08-19T00:22:42.975Z,22.80
2022-08-19T00:24:16.895Z,22.80
2022-08-19T00:25:49.679Z,22.80
2022-08-19T00:27:25.795Z,22.80
2022-08-19T00:28:58.594Z,22.80
2022-08-19T00:30:52.678Z,22.80
2022-08-19T00:32:26.212Z,22.80
2022-08-19T00:34:00.027Z,22.80
2022-08-19T00:35:32.942Z,22.80
2022-08-19T00:37:06.030Z,22.80
2022-08-19T00:38:43.781Z,22.80
2022-08-19T00:40:17.435Z,22.80
2022-08-19T00:41:52.420Z,22.90
2022-08-19T00:43:27.439Z,22.80
2022-08-19T00:45:00.798Z,22.90
2022-08-19T00:46:38.247Z,22.90
2022-08-19T00:48:14.885Z,22.90
2022-08-19T00:49:52.060Z,22.80
2022-08-19T00:51:27.505Z,22.90
2022-08-19T00:53:00.967Z,22.80
2022-08-19T00:54:34.037Z,22.80
2022-08-19T00:56:07.234Z,22.80
2022-08-19T00:57:45.478Z,22.80
2022-08-19T00:59:56.104Z,22.80
2022-08-19T01:01:12.890Z,22.80
2022-08-19T01:02:47.489Z,22.80
2022-08-19T01:04:20.291Z,22.80
2022-08-19T01:05:55.927Z,22.80
2022-08-19T01:07:27.948Z,22.80
2022-08-19T01:09:07.291Z,22.70
2022-08-19T01:10:49.446Z,22.70
2022-08-19T01:12:23.019Z,22.70
2022-08-19T01:13:56.438Z,22.70
2022-08-19T01:15:32.103Z,22.70
2022-08-19T01:17:05.615Z,22.70
2022-08-19T01:18:43.142Z,22.70
2022-08-19T01:20:19.988Z,22.70
2022-08-19T01:21:57.839Z,22.70
2022-08-19T01:23:43.490Z,22.60
2022-08-19T01:25:17.460Z,22.70
2022-08-19T01:26:50.367Z,22.70
2022-08-19T01:28:39.717Z,22.70
2022-08-19T01:30:17.490Z,22.70
2022-08-19T01:31:54.362Z,22.60
2022-08-19T01:33:27.104Z,22.60
2022-08-19T01:35:02.355Z,22.60
2022-08-19T01:36:39.458Z,22.60
2022-08-19T01:38:22.290Z,22.60
2022-08-19T01:39:56.415Z,22.60
2022-08-19T01:41:29.296Z,22.60
2022-08-19T01:43:03.003Z,22.50
2022-08-19T01:44:37.174Z,22.60
2022-08-19T01:46:09.967Z,22.50
2022-08-19T01:47:41.825Z,22.50
2022-08-19T01:49:14.852Z,22.50
2022-08-19T01:50:48.474Z,22.40
2022-08-19T01:52:21.490Z,22.40
2022-08-19T01:53:54.321Z,22.40
2022-08-19T01:55:27.927Z,22.40
2022-08-19T01:57:05.580Z,22.40
2022-08-19T01:58:47.029Z,22.40
2022-08-19T02:00:21.471Z,22.50
2022-08-19T02:01:54.238Z,22.50
2022-08-19T02:03:27.306Z,22.40
2022-08-19T02:05:00.114Z,22.40
2022-08-19T02:06:33.937Z,22.40
2022-08-19T02:08:07.063Z,22.40
2022-08-19T02:09:40.115Z,22.50
2022-08-19T02:11:21.763Z,22.50
2022-08-19T02:12:54.851Z,22.40
2022-08-19T02:14:27.926Z,22.40
2022-08-19T02:16:00.720Z,22.40
2022-08-19T02:17:37.275Z,22.40
2022-08-19T02:19:11.238Z,22.40
2022-08-19T02:20:45.319Z,22.40
2022-08-19T02:22:19.424Z,22.30
2022-08-19T02:23:52.639Z,22.30
2022-08-19T02:25:25.362Z,22.30
2022-08-19T02:26:59.600Z,22.30
2022-08-19T02:28:33.234Z,22.30
2022-08-19T02:30:07.556Z,22.30
2022-08-19T02:31:40.332Z,22.30
2022-08-19T02:33:12.141Z,22.20
2022-08-19T02:34:44.883Z,22.20
2022-08-19T02:36:21.088Z,22.20
2022-08-19T02:38:11.532Z,22.20
2022-08-19T02:39:44.305Z,22.20
2022-08-19T02:41:19.244Z,22.20
2022-08-19T02:42:54.070Z,22.30
2022-08-19T02:44:31.220Z,22.30
2022-08-19T02:46:12.516Z,22.20
2022-08-19T02:47:45.399Z,22.30
2022-08-19T02:49:18.811Z,22.30
2022-08-19T02:50:55.620Z,22.20
2022-08-19T02:52:29.084Z,22.20
2022-08-19T02:54:01.992Z,22.20
2022-08-19T02:55:45.777Z,22.20
2022-08-19T02:57:19.112Z,22.20
2022-08-19T02:58:53.291Z,22.20
2022-08-19T03:00:25.105Z,22.20
2022-08-19T03:01:57.898Z,22.20
2022-08-19T03:03:30.556Z,22.20
2022-08-19T03:05:05.344Z,22.20
2022-08-19T03:06:39.167Z,22.20
2022-08-19T03:08:14.016Z,22.20
2022-08-19T03:09:47.120Z,22.20
2022-08-19T03:11:22.442Z,22.20
2022-08-19T03:12:54.466Z,22.20
2022-08-19T03:14:28.798Z,22.20
2022-08-19T03:16:00.650Z,22.10
2022-08-19T03:17:33.434Z,22.10
2022-08-19T03:19:05.408Z,22.10
2022-08-19T03:20:43.039Z,22.10
2022-08-19T03:22:16.927Z,22.10
2022-08-19T03:23:50.119Z,22.10
2022-08-19T03:25:22.899Z,22.10
2022-08-19T03:26:58.189Z,22.10
2022-08-19T03:28:30.939Z,22.10
2022-08-19T03:30:07.706Z,22.00
2022-08-19T03:31:52.262Z,22.00
2022-08-19T03:33:28.698Z,22.00
2022-08-19T03:35:01.673Z,22.00
2022-08-19T03:36:34.770Z,22.00
2022-08-19T03:38:07.512Z,22.00
2022-08-19T03:39:41.243Z,21.90
2022-08-19T03:41:16.135Z,22.00
2022-08-19T03:42:49.631Z,21.90
2022-08-19T03:44:24.597Z,21.90
2022-08-19T03:46:04.964Z,21.90
2022-08-19T03:47:38.698Z,22.00
2022-08-19T03:49:10.688Z,21.90
2022-08-19T03:50:47.071Z,21.90
2022-08-19T03:52:20.251Z,21.90
2022-08-19T03:53:53.859Z,21.90
2022-08-19T03:55:27.135Z,21.90
2022-08-19T03:56:59.239Z,21.90
2022-08-19T03:58:32.378Z,21.90
2022-08-19T04:00:13.564Z,21.80
2022-08-19T04:01:48.269Z,21.80
2022-08-19T04:03:21.047Z,21.80
2022-08-19T04:04:56.211Z,21.80
2022-08-19T04:06:31.972Z,21.70
2022-08-19T04:08:09.602Z,21.70
2022-08-19T04:09:45.194Z,21.70
2022-08-19T04:11:21.460Z,21.70
2022-08-19T04:12:54.745Z,21.70
2022-08-19T04:14:30.922Z,21.80
2022-08-19T04:16:04.362Z,21.70
2022-08-19T04:17:38.443Z,21.70
2022-08-19T04:19:10.355Z,21.70
2022-08-19T04:20:45.709Z,21.70
2022-08-19T04:22:19.374Z,21.70
2022-08-19T04:23:53.281Z,21.70
2022-08-19T04:25:28.643Z,21.60
2022-08-19T04:27:02.782Z,21.70
2022-08-19T04:28:36.891Z,21.60
2022-08-19T04:30:10.959Z,21.60
2022-08-19T04:31:45.928Z,21.70
2022-08-19T04:33:26.509Z,21.60
2022-08-19T04:35:17.464Z,21.60
2022-08-19T04:36:52.720Z,21.60
2022-08-19T04:38:25.578Z,21.60
2022-08-19T04:40:15.771Z,21.60
2022-08-19T04:42:06.201Z,21.60
2022-08-19T04:43:40.470Z,21.60
2022-08-19T04:45:15.708Z,21.60
2022-08-19T04:46:52.268Z,21.60
2022-08-19T04:48:27.974Z,21.50
2022-08-19T04:50:01.095Z,21.50
2022-08-19T04:51:34.854Z,21.50
2022-08-19T04:53:07.630Z,21.50
2022-08-19T04:54:40.363Z,21.50
2022-08-19T04:56:15.645Z,21.40
2022-08-19T04:57:48.426Z,21.40
2022-08-19T04:59:22.771Z,21.40
2022-08-19T05:00:56.235Z,21.40
2022-08-19T05:02:30.323Z,21.30
2022-08-19T05:04:06.508Z,21.30
2022-08-19T05:05:45.246Z,21.30
2022-08-19T05:07:18.383Z,21.30
2022-08-19T05:08:50.727Z,21.30
2022-08-19T05:10:23.759Z,21.30
2022-08-19T05:11:56.516Z,21.30
2022-08-19T05:13:29.379Z,21.30
2022-08-19T05:15:02.327Z,21.30
2022-08-19T05:16:35.859Z,21.30
2022-08-19T05:18:26.304Z,21.30
2022-08-19T05:20:17.764Z,21.30
2022-08-19T05:22:08.084Z,21.30
2022-08-19T05:23:42.008Z,21.30
2022-08-19T05:25:19.391Z,21.30
2022-08-19T05:26:54.076Z,21.30
2022-08-19T05:28:27.588Z,21.40
2022-08-19T05:30:00.919Z,21.40
2022-08-19T05:31:34.000Z,21.40
2022-08-19T05:33:07.255Z,21.50
2022-08-19T05:34:40.230Z,21.50
2022-08-19T05:36:15.251Z,21.60
2022-08-19T05:37:47.958Z,21.60
2022-08-19T05:39:22.378Z,21.60
2022-08-19T05:40:55.131Z,21.70
2022-08-19T05:42:27.914Z,21.70
2022-08-19T05:44:06.767Z,21.70
2022-08-19T05:45:43.382Z,21.70
2022-08-19T05:47:16.849Z,21.70
2022-08-19T05:48:49.776Z,21.70
2022-08-19T05:50:27.693Z,21.70
2022-08-19T05:52:05.286Z,21.70
2022-08-19T05:53:38.887Z,21.80
2022-08-19T05:55:11.930Z,21.80
2022-08-19T05:56:44.343Z,21.80
2022-08-19T05:58:18.183Z,21.80
2022-08-19T05:59:58.244Z,21.80
2022-08-19T06:01:31.827Z,21.80
2022-08-19T06:03:11.691Z,21.90
2022-08-19T06:04:45.579Z,21.80
2022-08-19T06:06:18.907Z,21.90
2022-08-19T06:07:53.116Z,21.90
2022-08-19T06:09:26.223Z,21.90
2022-08-19T06:10:59.065Z,22.00
2022-08-19T06:12:33.702Z,22.00
2022-08-19T06:14:09.359Z,22.00
2022-08-19T06:15:49.506Z,22.00
2022-08-19T06:17:26.021Z,22.00
2022-08-19T06:19:03.419Z,22.00
2022-08-19T06:20:54.980Z,22.10
2022-08-19T06:22:30.277Z,22.10
2022-08-19T06:24:05.340Z,22.10
2022-08-19T06:25:38.127Z,22.10
2022-08-19T06:27:11.394Z,22.10
2022-08-19T06:28:47.079Z,22.10
2022-08-19T06:30:19.876Z,22.10
2022-08-19T06:31:57.087Z,22.10
2022-08-19T06:33:30.073Z,22.20
2022-08-19T06:35:03.224Z,22.20
2022-08-19T06:36:37.907Z,22.20
2022-08-19T06:38:11.215Z,22.20
2022-08-19T06:39:46.313Z,22.30
2022-08-19T06:41:18.229Z,22.30
2022-08-19T06:42:54.777Z,22.40
2022-08-19T06:44:32.137Z,22.30
2022-08-19T06:46:05.002Z,22.40
2022-08-19T06:47:39.103Z,22.40
2022-08-19T06:49:14.930Z,22.40
2022-08-19T06:50:48.393Z,22.50
2022-08-19T06:52:24.627Z,22.50
2022-08-19T06:53:58.201Z,22.50
2022-08-19T06:55:33.443Z,22.60
2022-08-19T06:57:07.722Z,22.70
2022-08-19T06:58:40.518Z,22.70
2022-08-19T07:00:14.766Z,22.70
2022-08-19T07:01:49.859Z,22.80
2022-08-19T07:03:22.062Z,22.80
2022-08-19T07:04:56.680Z,22.90
2022-08-19T07:06:43.581Z,22.90
2022-08-19T07:08:17.372Z,23.00
2022-08-19T07:10:00.327Z,23.10
2022-08-19T07:11:36.511Z,23.20
2022-08-19T07:13:09.263Z,23.30
2022-08-19T07:14:42.112Z,23.40
2022-08-19T07:16:18.258Z,23.40
2022-08-19T07:17:54.424Z,23.50
2022-08-19T07:19:29.326Z,23.60
2022-08-19T07:21:06.919Z,23.80
2022-08-19T07:22:42.462Z,24.00
2022-08-19T07:24:16.134Z,24.20
2022-08-19T07:25:52.715Z,24.40
2022-08-19T07:27:27.596Z,24.60
2022-08-19T07:29:00.467Z,24.80
2022-08-19T07:30:33.402Z,25.00
2022-08-19T07:32:11.631Z,25.20
2022-08-19T07:33:47.683Z,25.30
2022-08-19T07:35:21.379Z,25.50
2022-08-19T07:36:54.854Z,25.60
2022-08-19T07:38:27.730Z,25.80
2022-08-19T07:40:00.585Z,26.00
2022-08-19T07:41:33.478Z,26.10
2022-08-19T07:43:10.201Z,26.30
2022-08-19T07:44:47.862Z,26.50
2022-08-19T07:46:23.400Z,26.70
2022-08-19T07:47:56.350Z,26.80
2022-08-19T07:49:29.320Z,27.00
2022-08-19T07:51:06.509Z,27.10
2022-08-19T07:52:40.580Z,27.30
2022-08-19T07:54:13.744Z,27.50
2022-08-19T07:55:46.643Z,27.60
2022-08-19T07:57:19.960Z,27.70
2022-08-19T08:00:32.631Z,27.90
2022-08-19T08:02:06.572Z,28.00
2022-08-19T08:04:12.099Z,28.00
2022-08-19T08:06:02.694Z,28.10
2022-08-19T08:07:52.904Z,28.20
2022-08-19T08:09:30.738Z,28.20
2022-08-19T08:11:04.155Z,28.30
2022-08-19T08:12:42.642Z,28.20
2022-08-19T08:14:29.242Z,28.20
2022-08-19T08:16:10.177Z,28.20
2022-08-19T08:17:49.467Z,28.30
2022-08-19T08:19:26.546Z,28.30
2022-08-19T08:21:00.313Z,28.40
2022-08-19T08:22:50.402Z,28.40
2022-08-19T08:24:23.273Z,28.40
2022-08-19T08:26:02.928Z,28.40
2022-08-19T08:27:39.246Z,28.40
2022-08-19T08:29:13.582Z,28.30
2022-08-19T08:30:50.711Z,28.20
2022-08-19T08:32:23.837Z,28.20
2022-08-19T08:33:57.962Z,28.10
2022-08-19T08:35:30.876Z,28.00
2022-08-19T08:37:04.428Z,28.00
2022-08-19T08:38:40.329Z,27.90
2022-08-19T08:40:22.737Z,27.90
2022-08-19T08:42:09.752Z,27.90
2022-08-19T08:43:46.639Z,27.80
2022-08-19T08:45:20.340Z,27.70
2022-08-19T08:46:59.367Z,27.60
2022-08-19T08:48:40.163Z,27.60
2022-08-19T08:50:17.881Z,27.50
2022-08-19T08:51:59.985Z,27.50
2022-08-19T08:53:39.085Z,27.40
2022-08-19T08:55:17.306Z,27.50
2022-08-19T08:56:55.975Z,27.50
2022-08-19T08:58:34.191Z,27.50
2022-08-19T09:00:15.722Z,27.50
2022-08-19T09:01:49.278Z,27.60
2022-08-19T09:03:26.259Z,27.70
2022-08-19T09:04:59.693Z,27.80
2022-08-19T09:06:42.123Z,27.90
2022-08-19T09:08:24.743Z,28.10
2022-08-19T09:10:09.124Z,28.30
2022-08-19T09:11:54.534Z,28.50
2022-08-19T09:13:37.722Z,28.70
2022-08-19T09:15:13.168Z,28.90
2022-08-19T09:16:45.891Z,29.20
2022-08-19T09:18:19.689Z,29.30
2022-08-19T09:19:56.306Z,29.40
2022-08-19T09:21:33.480Z,29.50
2022-08-19T09:23:07.343Z,29.70
2022-08-19T09:24:40.689Z,29.80
2022-08-19T09:26:16.572Z,30.00
2022-08-19T09:27:50.927Z,30.10
2022-08-19T09:29:23.743Z,30.30
2022-08-19T09:30:56.655Z,30.30
2022-08-19T09:32:29.395Z,30.30
2022-08-19T09:34:04.582Z,30.30
2022-08-19T09:35:49.453Z,30.20
2022-08-19T09:37:26.182Z,30.10
2022-08-19T09:38:59.085Z,30.10
2022-08-19T09:40:37.752Z,30.20
2022-08-19T09:42:16.625Z,30.20
2022-08-19T09:44:03.030Z,30.20
2022-08-19T09:45:35.835Z,30.10
2022-08-19T09:47:09.684Z,30.20
2022-08-19T09:48:43.214Z,30.20
2022-08-19T09:50:16.612Z,30.20
2022-08-19T09:51:56.911Z,30.20
2022-08-19T09:53:29.767Z,30.30
2022-08-19T09:55:07.288Z,30.40
2022-08-19T09:56:42.376Z,30.40
2022-08-19T09:58:15.248Z,30.40
2022-08-19T09:59:49.157Z,30.50
2022-08-19T10:01:24.601Z,30.60
2022-08-19T10:02:57.397Z,30.60
2022-08-19T10:04:44.108Z,30.50
2022-08-19T10:06:17.495Z,30.60
2022-08-19T10:07:52.337Z,30.50
2022-08-19T10:09:34.053Z,30.40
2022-08-19T10:11:27.393Z,30.40
2022-08-19T10:13:00.280Z,30.40
2022-08-19T10:14:33.729Z,30.40
2022-08-19T10:16:09.965Z,30.40
2022-08-19T10:17:48.164Z,30.50
2022-08-19T10:19:30.988Z,30.50
2022-08-19T10:21:09.531Z,30.50
2022-08-19T10:22:45.136Z,30.60
2022-08-19T10:24:20.815Z,30.60
2022-08-19T10:25:54.342Z,30.70
2022-08-19T10:27:27.863Z,30.80
2022-08-19T10:29:06.585Z,30.80
2022-08-19T10:30:42.747Z,30.80
2022-08-19T10:32:16.306Z,30.90
2022-08-19T10:33:53.544Z,30.90
2022-08-19T10:35:30.288Z,30.90
2022-08-19T10:37:03.891Z,30.80
2022-08-19T10:38:37.417Z,30.80
2022-08-19T10:40:13.910Z,30.80
2022-08-19T10:41:46.799Z,30.80
2022-08-19T10:43:19.519Z,30.80
2022-08-19T10:44:52.318Z,30.80
2022-08-19T10:46:27.259Z,30.80
2022-08-19T10:48:00.010Z,30.80
2022-08-19T10:49:53.435Z,30.80
2022-08-19T10:51:48.023Z,30.80
2022-08-19T10:53:24.651Z,30.80
2022-08-19T10:55:14.914Z,30.80
2022-08-19T10:56:56.334Z,30.80
2022-08-19T10:58:30.438Z,30.80
2022-08-19T11:00:03.369Z,30.80
2022-08-19T11:01:36.893Z,30.80
2022-08-19T11:03:09.802Z,30.80
2022-08-19T11:04:43.154Z,30.70
2022-08-19T11:06:15.910Z,30.80
2022-08-19T11:07:51.221Z,30.80
2022-08-19T11:09:33.362Z,30.80
2022-08-19T11:11:09.752Z,30.80
2022-08-19T11:12:43.874Z,30.80
2022-08-19T11:14:19.222Z,30.80
2022-08-19T11:16:00.880Z,30.80
2022-08-19T11:17:36.830Z,30.70
2022-08-19T11:19:11.383Z,30.80
2022-08-19T11:20:44.136Z,30.80
2022-08-19T11:22:19.474Z,30.80
2022-08-19T11:23:54.653Z,30.80
2022-08-19T11:25:27.416Z,30.70
2022-08-19T11:27:05.247Z,30.80
2022-08-19T11:28:39.506Z,30.80
2022-08-19T11:30:14.746Z,30.80
2022-08-19T11:31:50.414Z,30.80
2022-08-19T11:33:23.169Z,30.90
2022-08-19T11:34:56.307Z,30.80
2022-08-19T11:36:30.127Z,30.90
2022-08-19T11:38:05.466Z,30.90
2022-08-19T11:39:41.092Z,30.90
2022-08-19T11:41:14.052Z,30.90
2022-08-19T11:42:57.699Z,30.90
2022-08-19T11:44:32.126Z,30.80
2022-08-19T11:46:12.651Z,30.80
2022-08-19T11:47:47.060Z,30.70
2022-08-19T11:49:22.039Z,30.80
2022-08-19T11:50:57.310Z,30.80
2022-08-19T11:52:30.454Z,30.70
2022-08-19T11:54:03.359Z,30.70
2022-08-19T11:55:39.858Z,30.70
2022-08-19T11:57:18.722Z,30.60
2022-08-19T11:58:52.901Z,30.70
2022-08-19T12:00:27.439Z,30.60
2022-08-19T12:02:00.200Z,30.60
2022-08-19T12:03:33.075Z,30.60
2022-08-19T12:05:11.512Z,30.60
2022-08-19T12:06:45.312Z,30.60
2022-08-19T12:08:19.147Z,30.70
2022-08-19T12:09:51.966Z,30.70
2022-08-19T12:11:25.834Z,30.60
2022-08-19T12:12:59.098Z,30.60
2022-08-19T12:14:32.859Z,30.60
2022-08-19T12:16:12.971Z,30.50
2022-08-19T12:17:46.006Z,30.50
2022-08-19T12:19:21.836Z,30.40
2022-08-19T12:20:56.855Z,30.30
2022-08-19T12:22:29.915Z,30.40
2022-08-19T12:24:04.578Z,30.30
2022-08-19T12:25:37.883Z,30.40
2022-08-19T12:27:12.520Z,30.40
2022-08-19T12:28:46.868Z,30.40
2022-08-19T12:30:19.699Z,30.40
2022-08-19T12:31:53.903Z,30.40
2022-08-19T12:33:28.919Z,30.40
2022-08-19T12:35:01.986Z,30.40
2022-08-19T12:36:35.066Z,30.40
2022-08-19T12:38:08.197Z,30.40
2022-08-19T12:39:43.261Z,30.50
2022-08-19T12:41:19.191Z,30.50
2022-08-19T12:42:52.009Z,30.50
2022-08-19T12:44:28.905Z,30.60
2022-08-19T12:46:02.405Z,30.50
2022-08-19T12:47:38.012Z,30.50
2022-08-19T12:49:52.172Z,30.50
2022-08-19T12:51:08.978Z,30.50
2022-08-19T12:52:43.239Z,30.50
2022-08-19T12:54:16.256Z,30.50
2022-08-19T12:55:49.015Z,30.50
2022-08-19T12:57:21.918Z,30.50
2022-08-19T12:58:56.695Z,30.50
2022-08-19T13:00:31.821Z,30.40
2022-08-19T13:02:06.891Z,30.40
2022-08-19T13:03:41.588Z,30.40
2022-08-19T13:05:17.499Z,30.40
2022-08-19T13:06:50.263Z,30.40
2022-08-19T13:08:23.039Z,30.40
2022-08-19T13:09:57.187Z,30.40
2022-08-19T13:11:33.323Z,30.30
2022-08-19T13:13:08.006Z,30.30
2022-08-19T13:14:41.204Z,30.30
2022-08-19T13:16:14.793Z,30.20
2022-08-19T13:17:49.479Z,30.20
2022-08-19T13:19:24.395Z,30.20
2022-08-19T13:20:57.342Z,30.20
2022-08-19T13:22:30.162Z,30.30
2022-08-19T13:24:03.095Z,30.20
2022-08-19T13:25:37.040Z,30.30
2022-08-19T13:27:09.772Z,30.20
2022-08-19T13:29:01.432Z,30.20
2022-08-19T13:30:51.871Z,30.10
2022-08-19T13:32:42.346Z,30.10
2022-08-19T13:34:15.883Z,30.00
2022-08-19T13:35:52.707Z,30.10
2022-08-19T13:37:39.475Z,30.10
2022-08-19T13:39:12.392Z,30.10
2022-08-19T13:40:45.188Z,30.10
2022-08-19T13:42:19.574Z,30.10
2022-08-19T13:43:52.586Z,30.10
2022-08-19T13:45:26.710Z,30.10
2022-08-19T13:47:07.632Z,30.10
2022-08-19T13:48:41.688Z,30.10
2022-08-19T13:50:17.176Z,30.10
2022-08-19T13:51:51.230Z,30.00
2022-08-19T13:53:24.465Z,30.00
2022-08-19T13:54:57.403Z,29.90
2022-08-19T13:56:30.188Z,29.90
2022-08-19T13:58:02.643Z,29.90
2022-08-19T13:59:35.422Z,29.90
2022-08-19T14:01:10.987Z,29.90
2022-08-19T14:02:44.079Z,29.90
2022-08-19T14:04:16.835Z,30.00
2022-08-19T14:05:49.614Z,30.00
2022-08-19T14:07:24.356Z,30.00
2022-08-19T14:08:57.094Z,30.00
2022-08-19T14:10:32.312Z,29.90
2022-08-19T14:12:06.014Z,29.80
2022-08-19T14:13:38.847Z,29.80
2022-08-19T14:15:13.768Z,29.80
2022-08-19T14:16:46.546Z,29.80
2022-08-19T14:18:19.993Z,29.80
2022-08-19T14:19:57.718Z,29.90
2022-08-19T14:21:30.700Z,29.80
2022-08-19T14:23:06.407Z,29.90
2022-08-19T14:24:40.618Z,29.90
2022-08-19T14:26:22.355Z,29.80
2022-08-19T14:27:54.926Z,29.80
2022-08-19T14:29:30.203Z,29.80
2022-08-19T14:31:02.960Z,29.80
2022-08-19T14:32:36.603Z,29.70
2022-08-19T14:34:10.416Z,29.70
2022-08-19T14:35:45.840Z,29.70
2022-08-19T14:37:18.614Z,29.70
2022-08-19T14:38:52.750Z,29.70
2022-08-19T14:40:28.087Z,29.70
2022-08-19T14:42:00.815Z,29.70
2022-08-19T14:43:33.633Z,29.60
2022-08-19T14:45:07.771Z,29.70
2022-08-19T14:46:41.242Z,29.70
2022-08-19T14:48:22.408Z,29.70
2022-08-19T14:50:05.126Z,29.70
2022-08-19T14:51:38.102Z,29.80
2022-08-19T14:53:12.417Z,29.80
2022-08-19T14:54:47.087Z,29.80
2022-08-19T14:56:21.651Z,29.80
2022-08-19T14:57:54.601Z,29.80
2022-08-19T14:59:33.334Z,29.80
2022-08-19T15:01:06.433Z,29.80
2022-08-19T15:02:39.247Z,29.80
2022-08-19T15:04:12.052Z,29.80
2022-08-19T15:05:45.046Z,29.80
2022-08-19T15:07:17.927Z,29.80
2022-08-19T15:08:53.698Z,29.80
2022-08-19T15:10:27.764Z,29.90
2022-08-19T15:12:02.329Z,29.90
2022-08-19T15:13:35.104Z,29.90
2022-08-19T15:15:09.259Z,30.00
2022-08-19T15:16:42.595Z,30.00
2022-08-19T15:18:14.740Z,30.10
2022-08-19T15:19:47.729Z,30.20
2022-08-19T15:21:26.569Z,30.10
2022-08-19T15:23:00.909Z,30.10
2022-08-19T15:24:33.927Z,30.10
2022-08-19T15:26:13.878Z,30.20
2022-08-19T15:27:51.041Z,30.20
2022-08-19T15:29:25.312Z,30.20
2022-08-19T15:30:58.078Z,30.20
2022-08-19T15:32:32.110Z,30.20
2022-08-19T15:34:06.719Z,30.10
2022-08-19T15:35:40.966Z,30.10
2022-08-19T15:37:13.711Z,30.00
2022-08-19T15:38:46.831Z,30.00
2022-08-19T15:40:22.559Z,30.00
2022-08-19T15:41:56.711Z,30.00
2022-08-19T15:43:29.783Z,30.00
2022-08-19T15:45:02.515Z,30.10
2022-08-19T15:46:37.756Z,30.10
2022-08-19T15:48:10.603Z,30.10
2022-08-19T15:49:43.441Z,30.10
2022-08-19T15:51:16.444Z,30.00
2022-08-19T15:52:51.858Z,30.00
2022-08-19T15:54:25.343Z,30.00
2022-08-19T15:55:58.231Z,29.90
2022-08-19T15:58:01.496Z,29.90
2022-08-19T15:59:53.586Z,30.00
2022-08-19T16:01:43.562Z,29.90
2022-08-19T16:03:34.219Z,29.90
2022-08-19T16:05:34.571Z,29.90
2022-08-19T16:07:08.406Z,29.90
2022-08-19T16:08:49.102Z,29.90
2022-08-19T16:10:27.283Z,29.90
2022-08-19T16:12:03.322Z,29.90
2022-08-19T16:13:37.431Z,29.90
2022-08-19T16:15:11.400Z,29.90
2022-08-19T16:16:47.606Z,29.90
2022-08-19T16:18:20.366Z,29.90
2022-08-19T16:19:53.122Z,29.90
2022-08-19T16:21:33.082Z,29.90
2022-08-19T16:23:06.050Z,29.90
2022-08-19T16:24:38.790Z,29.90
2022-08-19T16:26:11.582Z,29.90
2022-08-19T16:28:06.568Z,29.90
2022-08-19T16:29:39.435Z,29.90
2022-08-19T16:31:13.555Z,29.80
2022-08-19T16:32:46.302Z,29.80
2022-08-19T16:34:19.034Z,29.80
2022-08-19T16:36:00.446Z,29.80
2022-08-19T16:37:39.883Z,29.80
2022-08-19T16:39:14.488Z,29.80
2022-08-19T16:40:54.447Z,29.70
2022-08-19T16:42:27.249Z,29.70
2022-08-19T16:44:00.115Z,29.60
2022-08-19T16:45:34.197Z,29.60
2022-08-19T16:47:07.296Z,29.50
2022-08-19T16:48:42.942Z,29.50
2022-08-19T16:50:21.971Z,29.50
2022-08-19T16:51:58.098Z,29.50
2022-08-19T16:53:31.728Z,29.40
2022-08-19T16:55:06.266Z,29.40
2022-08-19T16:56:39.352Z,29.40
2022-08-19T16:58:12.179Z,29.40
2022-08-19T16:59:48.963Z,29.40
2022-08-19T17:01:23.669Z,29.30
2022-08-19T17:02:56.540Z,29.30
2022-08-19T17:04:29.563Z,29.30
2022-08-19T17:06:03.682Z,29.30
2022-08-19T17:07:36.478Z,29.30
2022-08-19T17:09:08.434Z,29.30
2022-08-19T17:10:45.722Z,29.20
2022-08-19T17:12:32.056Z,29.20
2022-08-19T17:14:06.301Z,29.20
2022-08-19T17:15:39.102Z,29.10
2022-08-19T17:17:13.314Z,29.00
2022-08-19T17:18:46.251Z,29.00
2022-08-19T17:20:19.263Z,29.00
2022-08-19T17:21:52.466Z,28.90
2022-08-19T17:23:42.885Z,28.90
2022-08-19T17:25:16.835Z,28.90
2022-08-19T17:26:49.586Z,28.90
2022-08-19T17:28:25.619Z,28.90
2022-08-19T17:29:59.801Z,28.90
2022-08-19T17:31:34.673Z,28.90
2022-08-19T17:33:09.204Z,28.80
2022-08-19T17:34:42.259Z,28.80
2022-08-19T17:36:15.028Z,28.80
2022-08-19T17:37:48.628Z,28.80
2022-08-19T17:39:21.403Z,28.80
2022-08-19T17:40:58.155Z,28.80
2022-08-19T17:42:31.848Z,28.70
2022-08-19T17:44:05.562Z,28.70
2022-08-19T17:45:38.951Z,28.70
2022-08-19T17:47:12.595Z,28.70
2022-08-19T17:48:51.841Z,28.60
2022-08-19T17:50:25.826Z,28.60
2022-08-19T17:51:59.303Z,28.60
2022-08-19T17:53:32.071Z,28.60
2022-08-19T17:55:05.429Z,28.60
2022-08-19T17:56:38.017Z,28.60
2022-08-19T17:58:11.214Z,28.50
2022-08-19T17:59:44.475Z,28.50
2022-08-19T18:01:17.907Z,28.50
2022-08-19T18:02:55.311Z,28.50
2022-08-19T18:04:29.946Z,28.50
2022-08-19T18:06:02.731Z,28.50
2022-08-19T18:07:35.679Z,28.40
2022-08-19T18:09:09.186Z,28.40
2022-08-19T18:10:42.290Z,28.30
2022-08-19T18:12:16.899Z,28.30
2022-08-19T18:13:49.911Z,28.20
2022-08-19T18:15:23.774Z,28.20
2022-08-19T18:16:56.573Z,28.10
2022-08-19T18:18:28.492Z,28.10
2022-08-19T18:20:02.814Z,28.10
2022-08-19T18:21:35.986Z,28.00
2022-08-19T18:23:45.398Z,28.00
2022-08-19T18:25:04.542Z,27.90
2022-08-19T18:26:37.311Z,27.90
2022-08-19T18:28:10.139Z,27.80
2022-08-19T18:29:43.424Z,27.80
2022-08-19T18:31:16.675Z,27.70
2022-08-19T18:32:52.426Z,27.70
2022-08-19T18:34:25.187Z,27.70
2022-08-19T18:35:59.272Z,27.60
2022-08-19T18:37:32.060Z,27.60
2022-08-19T18:39:23.102Z,27.60
2022-08-19T18:41:13.699Z,27.60
2022-08-19T18:43:14.475Z,27.50
2022-08-19T18:45:04.692Z,27.50
2022-08-19T18:46:55.195Z,27.40
2022-08-19T18:48:48.559Z,27.40
2022-08-19T18:50:21.316Z,27.30
2022-08-19T18:51:56.740Z,27.30
2022-08-19T18:53:33.104Z,27.30
2022-08-19T18:55:07.899Z,27.30
2022-08-19T18:56:44.585Z,27.20
2022-08-19T18:58:25.943Z,27.20
2022-08-19T18:59:59.353Z,27.10
2022-08-19T19:01:34.386Z,27.10
2022-08-19T19:03:07.214Z,27.00
2022-08-19T19:04:40.031Z,27.00
2022-08-19T19:06:14.310Z,27.00
2022-08-19T19:07:48.563Z,26.90
2022-08-19T19:09:23.319Z,26.90
2022-08-19T19:10:58.827Z,26.90
2022-08-19T19:12:31.651Z,26.80
2022-08-19T19:14:10.306Z,26.80
2022-08-19T19:15:43.870Z,26.80
2022-08-19T19:17:16.872Z,26.80
2022-08-19T19:18:52.470Z,26.80
2022-08-19T19:20:36.350Z,26.80
2022-08-19T19:22:12.089Z,26.70
2022-08-19T19:23:46.429Z,26.70
2022-08-19T19:25:19.815Z,26.60
2022-08-19T19:26:54.086Z,26.70
2022-08-19T19:28:28.905Z,26.60
2022-08-19T19:30:01.761Z,26.60
2022-08-19T19:31:34.581Z,26.60
2022-08-19T19:33:07.742Z,26.60
2022-08-19T19:34:41.067Z,26.50
2022-08-19T19:36:14.018Z,26.40
2022-08-19T19:37:52.360Z,26.40
2022-08-19T19:39:30.564Z,26.40
2022-08-19T19:41:23.238Z,26.30
2022-08-19T19:42:56.043Z,26.30
2022-08-19T19:44:30.570Z,26.30
2022-08-19T19:46:04.210Z,26.30
2022-08-19T19:47:40.601Z,26.20
2022-08-19T19:49:13.976Z,26.30
2022-08-19T19:50:53.928Z,26.30
2022-08-19T19:52:28.634Z,26.20
2022-08-19T19:54:01.811Z,26.20
2022-08-19T19:55:36.402Z,26.10
2022-08-19T19:57:09.279Z,26.10
2022-08-19T19:58:43.087Z,26.10
2022-08-19T20:00:18.710Z,26.00
2022-08-19T20:01:51.627Z,26.00
2022-08-19T20:03:27.860Z,26.00
2022-08-19T20:05:02.890Z,26.00
2022-08-19T20:06:35.675Z,26.00
2022-08-19T20:08:26.060Z,25.90
2022-08-19T20:10:00.309Z,25.90
2022-08-19T20:11:37.791Z,25.90
2022-08-19T20:13:11.274Z,25.90
2022-08-19T20:14:44.107Z,25.80
2022-08-19T20:16:17.798Z,25.80
2022-08-19T20:17:51.020Z,25.80
2022-08-19T20:19:27.026Z,25.80
2022-08-19T20:20:59.595Z,25.80
2022-08-19T20:22:33.977Z,25.70
2022-08-19T20:24:08.746Z,25.70
2022-08-19T20:25:43.359Z,25.70
2022-08-19T20:27:19.850Z,25.70
2022-08-19T20:29:11.351Z,25.70
2022-08-19T20:30:48.713Z,25.60
2022-08-19T20:32:21.551Z,25.60
2022-08-19T20:33:54.390Z,25.60
2022-08-19T20:35:27.490Z,25.60